createdAt,value
2018-02-13T04:30:31.979Z,-1.90
2018-02-13T04:33:01.457Z,-1.80
2018-02-13T04:35:29.307Z,-1.80
2018-02-13T04:37:57.174Z,-1.60
2018-02-13T04:40:24.878Z,-1.60
2018-02-13T04:42:53.413Z,-1.70
2018-02-13T04:45:21.279Z,-1.70
2018-02-13T04:47:49.042Z,-1.90
2018-02-13T04:50:16.807Z,-2.00
2018-02-13T04:52:44.567Z,-2.10
2018-02-13T04:55:12.337Z,-2.20
2018-02-13T04:57:40.196Z,-2.20
2018-02-13T05:00:08.061Z,-2.20
2018-02-13T05:02:35.763Z,-2.20
2018-02-13T05:05:04.303Z,-2.30
2018-02-13T05:07:32.168Z,-2.30
2018-02-13T05:09:59.931Z,-2.20
2018-02-13T05:12:27.796Z,-2.30
2018-02-13T05:14:55.662Z,-2.30
2018-02-13T05:17:23.424Z,-2.40
2018-02-13T05:19:51.188Z,-2.50
2018-02-13T05:22:19.053Z,-2.60
2018-02-13T05:24:46.923Z,-2.60
2018-02-13T05:27:14.786Z,-2.50
2018-02-13T05:29:42.655Z,-2.60
2018-02-13T05:32:10.621Z,-2.60
2018-02-13T05:34:38.485Z,-2.60
2018-02-13T05:37:06.353Z,-2.60
2018-02-13T05:39:34.215Z,-2.50
2018-02-13T05:42:02.077Z,-2.20
2018-02-13T05:44:29.843Z,-2.20
2018-02-13T05:46:57.654Z,-2.00
2018-02-13T05:49:25.469Z,-2.00
2018-02-13T05:51:53.231Z,-2.10
2018-02-13T05:54:20.994Z,-2.20
2018-02-13T05:56:48.859Z,-2.20
2018-02-13T05:59:16.622Z,-2.20
2018-02-13T06:01:44.487Z,-2.20
2018-02-13T06:04:12.250Z,-2.20
2018-02-13T06:06:40.132Z,-2.20
2018-02-13T06:09:07.981Z,-2.20
2018-02-13T06:11:35.849Z,-2.30
2018-02-13T06:14:03.761Z,-2.30
2018-02-13T06:16:32.396Z,-2.30
2018-02-13T06:19:00.160Z,-2.30
2018-02-13T06:21:27.922Z,-2.20
2018-02-13T06:23:55.786Z,-2.20
2018-02-13T06:26:23.550Z,-2.20
2018-02-13T06:28:51.313Z,-2.20
2018-02-13T06:31:19.225Z,-2.20
2018-02-13T06:33:47.044Z,-2.20
2018-02-13T06:36:14.805Z,-2.40
2018-02-13T06:38:42.671Z,-2.50
2018-02-13T06:41:10.537Z,-2.50
2018-02-13T06:43:38.300Z,-2.50
2018-02-13T06:46:06.063Z,-2.60
2018-02-13T06:48:33.928Z,-2.60
2018-02-13T06:51:01.901Z,-2.60
2018-02-13T06:53:29.762Z,-2.60
2018-02-13T06:55:57.567Z,-2.70
2018-02-13T06:58:26.106Z,-2.70
2018-02-13T07:00:53.870Z,-2.70
2018-02-13T07:03:21.734Z,-2.70
2018-02-13T07:05:49.497Z,-2.70
2018-02-13T07:08:17.363Z,-2.70
2018-02-13T07:10:45.228Z,-2.70
2018-02-13T07:13:13.093Z,-2.80
2018-02-13T07:15:40.959Z,-2.80
2018-02-13T07:18:08.723Z,-2.90
2018-02-13T07:20:36.589Z,-2.90
2018-02-13T07:23:04.454Z,-3.00
2018-02-13T07:25:32.214Z,-3.00
2018-02-13T07:28:00.080Z,-3.10
2018-02-13T07:30:27.945Z,-3.20
2018-02-13T07:32:55.711Z,-3.20
2018-02-13T07:35:23.573Z,-3.10
2018-02-13T07:37:51.438Z,-3.10
2018-02-13T07:40:19.304Z,-3.10
2018-02-13T07:42:47.109Z,-3.10
2018-02-13T07:45:15.658Z,-2.90
2018-02-13T07:47:43.518Z,-3.00
2018-02-13T07:50:11.383Z,-2.80
2018-02-13T07:52:39.143Z,-2.80
2018-02-13T07:55:07.008Z,-2.70
2018-02-13T07:57:34.770Z,-2.60
2018-02-13T08:00:02.587Z,-2.60
2018-02-13T08:02:30.399Z,-2.50
2018-02-13T08:04:58.161Z,-2.50
2018-02-13T08:07:26.027Z,-2.40
2018-02-13T08:09:53.892Z,-2.30
2018-02-13T08:12:21.758Z,-2.20
2018-02-13T08:14:49.520Z,-2.10
2018-02-13T08:17:17.387Z,-2.10
2018-02-13T08:19:45.252Z,-2.00
2018-02-13T08:22:13.016Z,-2.00
2018-02-13T08:24:40.881Z,-1.90
2018-02-13T08:27:08.642Z,-1.90
2018-02-13T08:29:36.507Z,-1.70
2018-02-13T08:32:04.224Z,-1.50
2018-02-13T08:34:32.752Z,-1.50
2018-02-13T08:37:00.630Z,-1.50
2018-02-13T08:39:28.481Z,-1.40
2018-02-13T08:41:56.347Z,-1.30
2018-02-13T08:44:24.108Z,-1.20
2018-02-13T08:46:51.872Z,-1.00
2018-02-13T08:49:19.738Z,-0.90
2018-02-13T08:51:47.501Z,-0.60
2018-02-13T08:54:15.264Z,-0.40
2018-02-13T08:56:43.128Z,-0.20
2018-02-13T08:59:10.892Z,-0.30
2018-02-13T09:01:38.657Z,-0.40
2018-02-13T09:04:06.522Z,-0.50
2018-02-13T09:06:34.286Z,-0.50
2018-02-13T09:09:02.151Z,-0.50
2018-02-13T09:11:30.013Z,-0.40
2018-02-13T09:13:57.878Z,-0.30
2018-02-13T09:16:25.745Z,-0.20
2018-02-13T09:18:53.609Z,-0.20
2018-02-13T09:21:21.372Z,0.00
2018-02-13T09:23:49.240Z,-0.10
2018-02-13T09:26:17.102Z,-0.10
2018-02-13T09:28:44.866Z,0.00
2018-02-13T09:31:12.730Z,0.00
2018-02-13T09:33:40.493Z,0.00
2018-02-13T09:36:08.256Z,0.10
2018-02-13T09:38:36.122Z,0.30
2018-02-13T09:41:03.885Z,0.20
2018-02-13T09:43:31.749Z,0.50
2018-02-13T09:45:59.614Z,0.60
2018-02-13T09:48:27.378Z,0.60
2018-02-13T09:50:55.141Z,0.60
2018-02-13T09:53:23.006Z,0.50
2018-02-13T09:55:50.774Z,0.50
2018-02-13T09:58:18.634Z,0.60
2018-02-13T10:00:46.499Z,0.70
2018-02-13T10:03:14.301Z,0.60
2018-02-13T10:05:42.946Z,0.60
2018-02-13T10:08:10.710Z,0.60
2018-02-13T10:10:38.473Z,0.60
2018-02-13T10:13:06.338Z,0.60
2018-02-13T10:15:34.104Z,0.60
2018-02-13T10:18:01.864Z,0.60
2018-02-13T10:20:29.729Z,0.70
2018-02-13T10:22:57.493Z,0.70
2018-02-13T10:25:25.357Z,0.90
2018-02-13T10:27:53.222Z,1.00
2018-02-13T10:30:21.076Z,0.90
2018-02-13T10:32:48.852Z,0.90
2018-02-13T10:35:16.719Z,1.00
2018-02-13T10:37:44.482Z,1.00
2018-02-13T10:40:13.266Z,1.00
2018-02-13T10:42:41.029Z,1.10
2018-02-13T10:45:08.730Z,1.10
2018-02-13T10:47:37.271Z,1.20
2018-02-13T10:50:05.343Z,1.20
2018-02-13T10:52:33.206Z,1.30
2018-02-13T10:55:01.073Z,1.30
2018-02-13T10:57:28.940Z,1.30
2018-02-13T10:59:56.700Z,1.40
2018-02-13T11:02:24.571Z,1.40
2018-02-13T11:04:52.431Z,1.50
2018-02-13T11:07:20.194Z,1.60
2018-02-13T11:09:48.060Z,1.60
2018-02-13T11:12:15.822Z,1.70
2018-02-13T11:14:43.687Z,1.60
2018-02-13T11:17:11.552Z,1.60
2018-02-13T11:19:39.316Z,1.60
2018-02-13T11:22:07.181Z,1.60
2018-02-13T11:24:35.047Z,1.50
2018-02-13T11:27:02.912Z,1.40
2018-02-13T11:29:30.674Z,1.30
2018-02-13T11:31:58.437Z,1.30
2018-02-13T11:34:26.303Z,1.40
2018-02-13T11:36:54.168Z,1.40
2018-02-13T11:39:21.930Z,1.50
2018-02-13T11:41:49.693Z,1.60
2018-02-13T11:44:17.561Z,1.60
2018-02-13T11:46:45.322Z,1.70
2018-02-13T11:49:13.085Z,1.60
2018-02-13T11:51:40.950Z,1.50
2018-02-13T11:54:08.713Z,1.40
2018-02-13T11:56:36.476Z,1.40
2018-02-13T11:59:04.239Z,1.50
2018-02-13T12:01:32.003Z,1.60
2018-02-13T12:03:59.767Z,1.50
2018-02-13T12:06:27.632Z,1.50
2018-02-13T12:08:55.393Z,1.50
2018-02-13T12:11:23.258Z,1.40
2018-02-13T12:13:51.021Z,1.40
2018-02-13T12:16:18.785Z,1.50
2018-02-13T12:18:46.652Z,1.60
2018-02-13T12:21:14.412Z,1.60
2018-02-13T12:23:42.175Z,1.70
2018-02-13T12:26:10.040Z,1.70
2018-02-13T12:28:37.803Z,1.70
2018-02-13T12:31:05.568Z,1.60
2018-02-13T12:33:33.432Z,1.50
2018-02-13T12:36:01.194Z,1.50
2018-02-13T12:38:28.958Z,1.40
2018-02-13T12:40:56.822Z,1.40
2018-02-13T12:43:24.589Z,1.40
2018-02-13T12:45:52.350Z,1.30
2018-02-13T12:48:20.214Z,1.30
2018-02-13T12:50:47.978Z,1.30
2018-02-13T12:53:15.739Z,1.30
2018-02-13T12:55:43.502Z,1.20
2018-02-13T12:58:11.265Z,1.20
2018-02-13T13:00:39.028Z,1.20
2018-02-13T13:03:06.892Z,1.30
2018-02-13T13:05:34.758Z,1.40
2018-02-13T13:08:02.462Z,1.50
2018-02-13T13:10:31.062Z,2.00
2018-02-13T13:12:58.867Z,2.00
2018-02-13T13:15:26.629Z,2.30
2018-02-13T13:17:54.494Z,2.50
2018-02-13T13:20:22.206Z,2.80
2018-02-13T13:22:50.020Z,3.00
2018-02-13T13:25:17.783Z,3.10
2018-02-13T13:27:45.548Z,3.00
2018-02-13T13:30:13.223Z,3.00
2018-02-13T13:32:40.868Z,3.00
2018-02-13T13:35:08.630Z,3.20
2018-02-13T13:37:36.501Z,3.10
2018-02-13T13:40:04.462Z,2.80
2018-02-13T13:42:32.225Z,2.50
2018-02-13T13:45:00.091Z,2.40
2018-02-13T13:47:27.853Z,2.20
2018-02-13T13:49:55.533Z,2.10
2018-02-13T13:52:24.013Z,1.80
2018-02-13T13:54:51.859Z,1.90
2018-02-13T13:57:19.622Z,1.70
2018-02-13T13:59:47.299Z,1.60
2018-02-13T14:02:15.046Z,1.50
2018-02-13T14:04:42.809Z,1.50
2018-02-13T14:07:10.673Z,1.50
2018-02-13T14:09:38.437Z,1.50
2018-02-13T14:12:06.200Z,1.50
2018-02-13T14:14:33.979Z,1.60
2018-02-13T14:17:01.640Z,1.50
2018-02-13T14:19:29.303Z,1.50
2018-02-13T14:21:57.050Z,1.60
2018-02-13T14:24:24.723Z,1.60
2018-02-13T14:26:52.573Z,1.70
2018-02-13T14:29:20.338Z,1.70
2018-02-13T14:31:48.100Z,1.70
2018-02-13T14:34:15.862Z,1.70
2018-02-13T14:36:43.544Z,1.70
2018-02-13T14:39:11.998Z,1.60
2018-02-13T14:41:39.662Z,1.60
2018-02-13T14:44:07.426Z,1.60
2018-02-13T14:46:35.191Z,1.50
2018-02-13T14:49:02.951Z,1.50
2018-02-13T14:51:30.604Z,1.40
2018-02-13T14:53:58.478Z,1.20
2018-02-13T14:56:26.239Z,0.90
2018-02-13T14:58:53.921Z,0.70
2018-02-13T15:01:21.663Z,0.50
2018-02-13T15:03:49.444Z,0.30
2018-02-13T15:06:17.107Z,0.10
2018-02-13T15:08:46.308Z,-0.10
2018-02-13T15:11:14.149Z,-0.20
2018-02-13T15:13:41.913Z,-0.20
2018-02-13T15:16:09.779Z,-0.20
2018-02-13T15:18:38.215Z,-0.30
2018-02-13T15:21:06.634Z,-0.20
2018-02-13T15:23:34.501Z,-0.20
2018-02-13T15:26:02.183Z,-0.20
2018-02-13T15:28:29.820Z,-0.20
2018-02-13T15:30:57.605Z,-0.10
2018-02-13T15:33:25.447Z,-0.10
2018-02-13T15:35:53.132Z,0.00
2018-02-13T15:38:20.873Z,0.00
2018-02-13T15:40:49.661Z,0.10
2018-02-13T15:43:17.420Z,0.10
2018-02-13T15:45:45.184Z,0.10
2018-02-13T15:48:12.859Z,0.20
2018-02-13T15:50:40.529Z,0.30
2018-02-13T15:53:09.106Z,0.30
2018-02-13T15:55:36.768Z,0.30
2018-02-13T15:58:05.961Z,0.30
2018-02-13T16:00:33.707Z,0.30
2018-02-13T16:03:01.421Z,0.30
2018-02-13T16:05:30.460Z,0.30
2018-02-13T16:07:58.084Z,0.30
2018-02-13T16:10:26.236Z,0.20
2018-02-13T16:12:53.971Z,0.20
2018-02-13T16:15:21.717Z,0.20
2018-02-13T16:17:49.377Z,0.30
2018-02-13T16:20:17.247Z,0.20
2018-02-13T16:22:45.009Z,0.20
2018-02-13T16:25:12.768Z,0.20
2018-02-13T16:27:40.534Z,0.10
2018-02-13T16:30:08.163Z,0.00
2018-02-13T16:32:35.956Z,-0.10
2018-02-13T16:35:03.599Z,-0.10
2018-02-13T16:37:31.228Z,-0.20
2018-02-13T16:39:58.884Z,-0.30
2018-02-13T16:42:27.276Z,-0.70
2018-02-13T16:44:54.927Z,-0.70
2018-02-13T16:47:23.315Z,-1.10
2018-02-13T16:49:50.963Z,-1.10
2018-02-13T16:52:19.405Z,-1.30
2018-02-13T16:54:47.037Z,-1.40
2018-02-13T16:57:14.675Z,-1.40
2018-02-13T16:59:42.344Z,-1.50
2018-02-13T17:02:09.975Z,-1.60
2018-02-13T17:04:38.420Z,-1.70
2018-02-13T17:07:06.270Z,-1.70
2018-02-13T17:09:33.957Z,-1.80
2018-02-13T17:12:01.634Z,-1.80
2018-02-13T17:14:29.359Z,-1.80
2018-02-13T17:16:57.122Z,-1.80
2018-02-13T17:19:26.876Z,-2.00
2018-02-13T17:21:55.272Z,-2.10
2018-02-13T17:24:22.970Z,-2.10
2018-02-13T17:26:50.756Z,-2.00
2018-02-13T17:29:18.516Z,-2.10
2018-02-13T17:31:46.176Z,-2.10
2018-02-13T17:34:14.021Z,-2.30
2018-02-13T17:36:41.706Z,-2.40
2018-02-13T17:39:09.372Z,-2.50
2018-02-13T17:41:37.925Z,-2.60
2018-02-13T17:44:05.689Z,-2.60
2018-02-13T17:46:33.920Z,-2.70
2018-02-13T17:49:02.549Z,-2.70
2018-02-13T17:51:30.316Z,-2.70
2018-02-13T17:53:57.987Z,-2.80
2018-02-13T17:56:25.646Z,-2.80
2018-02-13T17:58:53.437Z,-2.80
2018-02-13T18:01:21.975Z,-2.90
2018-02-13T18:03:49.737Z,-2.90
2018-02-13T18:06:17.415Z,-3.00
2018-02-13T18:08:45.272Z,-3.00
2018-02-13T18:11:13.132Z,-3.00
2018-02-13T18:13:40.997Z,-3.10
2018-02-13T18:16:08.693Z,-3.20
2018-02-13T18:18:37.083Z,-3.20
2018-02-13T18:21:05.602Z,-3.20
2018-02-13T18:23:33.239Z,-3.20
2018-02-13T18:26:00.885Z,-3.30
2018-02-13T18:28:29.492Z,-3.30
2018-02-13T18:30:57.129Z,-3.30
2018-02-13T18:33:25.587Z,-3.40
2018-02-13T18:35:53.307Z,-3.50
2018-02-13T18:38:20.939Z,-3.50
2018-02-13T18:40:48.596Z,-3.50
2018-02-13T18:43:17.020Z,-3.60
2018-02-13T18:45:44.658Z,-3.60
2018-02-13T18:48:12.352Z,-3.60
2018-02-13T18:50:40.103Z,-3.70
2018-02-13T18:55:35.525Z,-3.80
2018-02-13T18:58:03.217Z,-3.80
2018-02-13T19:00:30.868Z,-3.80
2018-02-13T19:02:58.609Z,-3.90
2018-02-13T19:05:26.269Z,-3.90
2018-02-13T19:07:53.900Z,-4.00
2018-02-13T19:10:21.693Z,-4.00
2018-02-13T19:12:49.351Z,-4.10
2018-02-13T19:15:17.014Z,-4.10
2018-02-13T19:17:44.779Z,-4.20
2018-02-13T19:20:12.459Z,-4.20
2018-02-13T19:22:40.119Z,-4.20
2018-02-13T19:25:07.964Z,-4.20
2018-02-13T19:27:35.599Z,-4.10
2018-02-13T19:30:03.304Z,-4.20
2018-02-13T19:32:31.664Z,-4.10
2018-02-13T19:35:00.245Z,-4.30
2018-02-13T19:37:27.945Z,-4.30
2018-02-13T19:39:56.587Z,-4.40
2018-02-13T19:42:24.223Z,-4.40
2018-02-13T19:44:51.927Z,-4.40
2018-02-13T19:47:19.609Z,-4.40
2018-02-13T19:49:48.151Z,-4.50
2018-02-13T19:52:15.913Z,-4.50
2018-02-13T19:54:43.800Z,-4.50
2018-02-13T19:57:11.563Z,-4.50
2018-02-13T19:59:39.413Z,-4.50
2018-02-13T20:02:07.173Z,-4.60
2018-02-13T20:04:34.871Z,-4.60
2018-02-13T20:07:03.313Z,-4.60
2018-02-13T20:09:32.209Z,-4.60
2018-02-13T20:11:59.895Z,-4.60
2018-02-13T20:14:27.531Z,-4.70
2018-02-13T20:16:55.172Z,-4.70
2018-02-13T20:21:54.661Z,-4.80
2018-02-13T20:24:22.406Z,-4.90
2018-02-13T20:26:50.944Z,-5.00
2018-02-13T20:29:18.811Z,-5.00
2018-02-13T20:31:46.470Z,-5.00
2018-02-13T20:34:14.131Z,-4.90
2018-02-13T20:36:42.136Z,-4.90
2018-02-13T20:39:09.964Z,-4.90
2018-02-13T20:41:37.624Z,-4.90
2018-02-13T20:44:05.481Z,-4.90
2018-02-13T20:46:33.175Z,-4.90
2018-02-13T20:49:00.956Z,-4.90
2018-02-13T20:51:29.551Z,-4.90
2018-02-13T20:53:58.004Z,-5.00
2018-02-13T20:56:28.963Z,-5.00
2018-02-13T20:59:01.564Z,-5.10
2018-02-13T21:01:29.292Z,-5.10
2018-02-13T21:06:29.519Z,-5.30
2018-02-13T21:08:57.156Z,-5.20
2018-02-13T21:11:29.917Z,-5.30
2018-02-13T21:13:57.564Z,-5.30
2018-02-13T21:16:25.293Z,-5.30
2018-02-13T21:18:53.763Z,-5.30
2018-02-13T21:21:21.601Z,-5.30
2018-02-13T21:23:49.232Z,-5.30
2018-02-13T21:26:16.896Z,-5.40
2018-02-13T21:28:44.573Z,-5.40
2018-02-13T21:31:12.336Z,-5.50
2018-02-13T21:33:40.084Z,-5.50
2018-02-13T21:36:07.748Z,-5.50
2018-02-13T21:38:35.388Z,-5.50
2018-02-13T21:41:03.067Z,-5.50
2018-02-13T21:43:30.712Z,-5.60
2018-02-13T21:45:58.348Z,-5.60
2018-02-13T21:48:26.037Z,-5.50
2018-02-13T21:50:53.687Z,-5.50
2018-02-13T21:53:21.461Z,-5.40
2018-02-13T21:55:49.193Z,-5.40
2018-02-13T21:58:17.672Z,-5.50
2018-02-13T22:00:46.327Z,-5.60
2018-02-13T22:03:14.156Z,-5.60
2018-02-13T22:05:41.910Z,-5.60
2018-02-13T22:08:09.624Z,-5.60
2018-02-13T22:10:37.256Z,-5.60
2018-02-13T22:13:05.022Z,-5.70
2018-02-13T22:15:34.200Z,-5.80
2018-02-13T22:18:02.025Z,-5.80
2018-02-13T22:20:30.836Z,-5.80
2018-02-13T22:22:58.471Z,-5.80
2018-02-13T22:25:26.931Z,-5.80
2018-02-13T22:27:54.610Z,-5.90
2018-02-13T22:30:22.319Z,-5.80
2018-02-13T22:32:49.977Z,-5.80
2018-02-13T22:35:17.816Z,-5.70
2018-02-13T22:37:46.372Z,-5.50
2018-02-13T22:40:14.215Z,-5.50
2018-02-13T22:42:42.243Z,-5.60
2018-02-13T22:45:10.895Z,-5.60
2018-02-13T22:47:38.784Z,-5.70
2018-02-13T22:50:06.620Z,-5.70
2018-02-13T22:52:35.420Z,-5.70
2018-02-13T22:55:03.105Z,-5.70
2018-02-13T22:57:30.836Z,-5.80
2018-02-13T22:59:59.351Z,-5.80
2018-02-13T23:02:27.028Z,-5.80
2018-02-13T23:04:54.791Z,-5.80
2018-02-13T23:07:22.536Z,-5.80
2018-02-13T23:09:50.251Z,-5.90
2018-02-13T23:12:18.033Z,-5.90
2018-02-13T23:14:46.546Z,-5.90
2018-02-13T23:17:14.284Z,-5.90
2018-02-13T23:19:42.087Z,-5.90
2018-02-13T23:22:09.769Z,-6.00
2018-02-13T23:24:37.539Z,-6.00
2018-02-13T23:27:05.297Z,-6.00
2018-02-13T23:29:33.004Z,-6.00
